sensor_id;sensor_type;location;lat;lon;timestamp;P1;durP1;ratioP1;P2;durP2;ratioP2
48809;SDS011;40070;47.322;18.784;2022-09-14T00:02:01;4.93;;;2.08;;
48809;SDS011;40070;47.322;18.784;2022-09-14T00:04:03;4.36;;;1.98;;
48809;SDS011;40070;47.322;18.784;2022-09-14T00:06:05;4.36;;;2.28;;
48809;SDS011;40070;47.322;18.784;2022-09-14T00:08:05;5.88;;;2.18;;
48809;SDS011;40070;47.322;18.784;2022-09-14T00:10:06;5.59;;;2.58;;
48809;SDS011;40070;47.322;18.784;2022-09-14T00:12:07;4.17;;;1.98;;
48809;SDS011;40070;47.322;18.784;2022-09-14T00:14:09;5.40;;;2.38;;
48809;SDS011;40070;47.322;18.784;2022-09-14T00:16:15;3.60;;;1.78;;
48809;SDS011;40070;47.322;18.784;2022-09-14T00:18:12;4.27;;;1.98;;
48809;SDS011;40070;47.322;18.784;2022-09-14T00:20:13;4.18;;;1.88;;
48809;SDS011;40070;47.322;18.784;2022-09-14T00:22:14;4.46;;;2.38;;
48809;SDS011;40070;47.322;18.784;2022-09-14T00:24:15;4.36;;;1.98;;
48809;SDS011;40070;47.322;18.784;2022-09-14T00:26:17;4.26;;;1.98;;
48809;SDS011;40070;47.322;18.784;2022-09-14T00:28:16;5.86;;;2.28;;
48809;SDS011;40070;47.322;18.784;2022-09-14T00:30:18;5.49;;;2.08;;
48809;SDS011;40070;47.322;18.784;2022-09-14T00:32:18;4.92;;;2.08;;
48809;SDS011;40070;47.322;18.784;2022-09-14T00:34:20;6.07;;;2.48;;
48809;SDS011;40070;47.322;18.784;2022-09-14T00:36:24;5.41;;;2.28;;
48809;SDS011;40070;47.322;18.784;2022-09-14T00:38:21;4.57;;;2.18;;
48809;SDS011;40070;47.322;18.784;2022-09-14T00:40:22;4.65;;;2.28;;
48809;SDS011;40070;47.322;18.784;2022-09-14T00:42:24;3.97;;;1.98;;
48809;SDS011;40070;47.322;18.784;2022-09-14T00:46:38;7.28;;;2.38;;
48809;SDS011;40070;47.322;18.784;2022-09-14T00:48:34;6.33;;;2.18;;
48809;SDS011;40070;47.322;18.784;2022-09-14T00:50:36;5.48;;;2.38;;
48809;SDS011;40070;47.322;18.784;2022-09-14T00:52:47;5.56;;;2.18;;
48809;SDS011;40070;47.322;18.784;2022-09-14T00:54:50;5.28;;;2.37;;
48809;SDS011;40070;47.322;18.784;2022-09-14T00:56:48;4.81;;;2.37;;
48809;SDS011;40070;47.322;18.784;2022-09-14T00:58:49;6.67;;;2.47;;
48809;SDS011;40070;47.322;18.784;2022-09-14T01:00:52;4.14;;;1.98;;
48809;SDS011;40070;47.322;18.784;2022-09-14T01:02:53;5.56;;;2.57;;
48809;SDS011;40070;47.322;18.784;2022-09-14T01:04:54;4.71;;;2.57;;
48809;SDS011;40070;47.322;18.784;2022-09-14T01:14:10;5.76;;;2.47;;
48809;SDS011;40070;47.322;18.784;2022-09-14T01:20:34;5.00;;;2.57;;
48809;SDS011;40070;47.322;18.784;2022-09-14T01:22:50;5.18;;;2.47;;
48809;SDS011;40070;47.322;18.784;2022-09-14T01:25:04;5.17;;;2.37;;
48809;SDS011;40070;47.322;18.784;2022-09-14T01:27:21;5.65;;;2.47;;
48809;SDS011;40070;47.322;18.784;2022-09-14T01:31:28;7.26;;;2.97;;
48809;SDS011;40070;47.322;18.784;2022-09-14T01:33:42;5.76;;;2.87;;
48809;SDS011;40070;47.322;18.784;2022-09-14T01:36:04;6.15;;;2.18;;
48809;SDS011;40070;47.322;18.784;2022-09-14T01:38:18;4.44;;;2.18;;
48809;SDS011;40070;47.322;18.784;2022-09-14T01:40:34;5.09;;;1.98;;
48809;SDS011;40070;47.322;18.784;2022-09-14T01:42:22;5.09;;;2.37;;
48809;SDS011;40070;47.322;18.784;2022-09-14T01:44:36;4.42;;;2.28;;
48809;SDS011;40070;47.322;18.784;2022-09-14T01:46:50;6.41;;;2.57;;
48809;SDS011;40070;47.322;18.784;2022-09-14T01:48:56;5.09;;;2.28;;
48809;SDS011;40070;47.322;18.784;2022-09-14T01:51:11;5.28;;;2.47;;
48809;SDS011;40070;47.322;18.784;2022-09-14T01:53:35;6.12;;;2.77;;
48809;SDS011;40070;47.322;18.784;2022-09-14T01:55:28;5.46;;;2.37;;
48809;SDS011;40070;47.322;18.784;2022-09-14T01:57:35;6.87;;;2.57;;
48809;SDS011;40070;47.322;18.784;2022-09-14T01:59:47;6.97;;;2.87;;
48809;SDS011;40070;47.322;18.784;2022-09-14T02:01:59;6.01;;;2.67;;
48809;SDS011;40070;47.322;18.784;2022-09-14T02:04:01;4.69;;;2.47;;
48809;SDS011;40070;47.322;18.784;2022-09-14T02:06:19;5.35;;;2.77;;
48809;SDS011;40070;47.322;18.784;2022-09-14T02:08:11;7.42;;;3.06;;
48809;SDS011;40070;47.322;18.784;2022-09-14T02:10:13;5.73;;;2.67;;
48809;SDS011;40070;47.322;18.784;2022-09-14T02:12:14;5.65;;;2.57;;
48809;SDS011;40070;47.322;18.784;2022-09-14T02:14:14;7.26;;;2.77;;
48809;SDS011;40070;47.322;18.784;2022-09-14T02:16:15;4.24;;;2.37;;
48809;SDS011;40070;47.322;18.784;2022-09-14T02:18:17;6.58;;;3.07;;
48809;SDS011;40070;47.322;18.784;2022-09-14T02:20:27;6.30;;;2.87;;
48809;SDS011;40070;47.322;18.784;2022-09-14T02:22:22;4.90;;;2.57;;
48809;SDS011;40070;47.322;18.784;2022-09-14T02:24:22;7.54;;;3.27;;
48809;SDS011;40070;47.322;18.784;2022-09-14T02:26:24;6.20;;;2.67;;
48809;SDS011;40070;47.322;18.784;2022-09-14T02:28:26;6.01;;;2.57;;
48809;SDS011;40070;47.322;18.784;2022-09-14T02:30:27;7.71;;;2.87;;
48809;SDS011;40070;47.322;18.784;2022-09-14T02:32:49;4.41;;;2.17;;
48809;SDS011;40070;47.322;18.784;2022-09-14T02:35:16;5.15;;;2.57;;
48809;SDS011;40070;47.322;18.784;2022-09-14T02:37:10;5.72;;;2.57;;
48809;SDS011;40070;47.322;18.784;2022-09-14T02:39:17;6.27;;;2.86;;
48809;SDS011;40070;47.322;18.784;2022-09-14T02:48:09;5.26;;;2.27;;
48809;SDS011;40070;47.322;18.784;2022-09-14T02:56:46;6.48;;;2.57;;
48809;SDS011;40070;47.322;18.784;2022-09-14T02:58:47;5.63;;;2.77;;
48809;SDS011;40070;47.322;18.784;2022-09-14T03:00:48;5.62;;;2.67;;
48809;SDS011;40070;47.322;18.784;2022-09-14T03:02:49;5.89;;;2.57;;
48809;SDS011;40070;47.322;18.784;2022-09-14T03:04:50;6.08;;;2.86;;
48809;SDS011;40070;47.322;18.784;2022-09-14T03:06:51;6.46;;;2.77;;
48809;SDS011;40070;47.322;18.784;2022-09-14T03:08:52;5.34;;;2.57;;
48809;SDS011;40070;47.322;18.784;2022-09-14T03:10:53;4.70;;;2.37;;
48809;SDS011;40070;47.322;18.784;2022-09-14T03:12:54;5.09;;;2.28;;
48809;SDS011;40070;47.322;18.784;2022-09-14T03:14:55;4.52;;;2.18;;
48809;SDS011;40070;47.322;18.784;2022-09-14T03:16:55;5.93;;;2.67;;
48809;SDS011;40070;47.322;18.784;2022-09-14T03:18:56;6.39;;;2.47;;
48809;SDS011;40070;47.322;18.784;2022-09-14T03:21:06;7.33;;;2.57;;
48809;SDS011;40070;47.322;18.784;2022-09-14T03:23:00;5.55;;;2.18;;
48809;SDS011;40070;47.322;18.784;2022-09-14T03:25:01;4.70;;;2.67;;
48809;SDS011;40070;47.322;18.784;2022-09-14T03:27:02;5.17;;;2.47;;
48809;SDS011;40070;47.322;18.784;2022-09-14T03:29:03;8.35;;;2.47;;
48809;SDS011;40070;47.322;18.784;2022-09-14T03:31:05;7.61;;;2.67;;
48809;SDS011;40070;47.322;18.784;2022-09-14T03:33:05;5.08;;;2.37;;
48809;SDS011;40070;47.322;18.784;2022-09-14T03:35:06;4.88;;;2.27;;
48809;SDS011;40070;47.322;18.784;2022-09-14T03:37:07;5.91;;;2.67;;
48809;SDS011;40070;47.322;18.784;2022-09-14T03:39:08;5.45;;;2.27;;
48809;SDS011;40070;47.322;18.784;2022-09-14T03:41:09;5.45;;;2.77;;
48809;SDS011;40070;47.322;18.784;2022-09-14T03:43:17;4.04;;;2.08;;
48809;SDS011;40070;47.322;18.784;2022-09-14T03:45:18;4.42;;;2.08;;
48809;SDS011;40070;47.322;18.784;2022-09-14T03:47:20;4.51;;;2.47;;
48809;SDS011;40070;47.322;18.784;2022-09-14T03:49:22;5.08;;;2.57;;
48809;SDS011;40070;47.322;18.784;2022-09-14T03:51:23;5.08;;;2.47;;
48809;SDS011;40070;47.322;18.784;2022-09-14T03:53:24;5.16;;;2.57;;
48809;SDS011;40070;47.322;18.784;2022-09-14T03:55:25;6.20;;;2.67;;
48809;SDS011;40070;47.322;18.784;2022-09-14T03:57:25;4.42;;;1.98;;
48809;SDS011;40070;47.322;18.784;2022-09-14T03:59:27;4.70;;;2.17;;
48809;SDS011;40070;47.322;18.784;2022-09-14T04:01:33;5.62;;;2.27;;
48809;SDS011;40070;47.322;18.784;2022-09-14T04:03:34;5.73;;;2.37;;
48809;SDS011;40070;47.322;18.784;2022-09-14T04:05:35;4.14;;;2.18;;
48809;SDS011;40070;47.322;18.784;2022-09-14T04:07:36;6.50;;;2.37;;
48809;SDS011;40070;47.322;18.784;2022-09-14T04:09:37;4.72;;;2.28;;
48809;SDS011;40070;47.322;18.784;2022-09-14T04:11:50;5.30;;;2.28;;
48809;SDS011;40070;47.322;18.784;2022-09-14T04:13:51;5.19;;;2.38;;
48809;SDS011;40070;47.322;18.784;2022-09-14T04:15:55;4.25;;;2.08;;
48809;SDS011;40070;47.322;18.784;2022-09-14T04:17:53;4.25;;;2.28;;
48809;SDS011;40070;47.322;18.784;2022-09-14T04:19:53;7.62;;;2.47;;
48809;SDS011;40070;47.322;18.784;2022-09-14T04:21:55;5.16;;;2.47;;
48809;SDS011;40070;47.322;18.784;2022-09-14T04:23:56;5.25;;;2.17;;
48809;SDS011;40070;47.322;18.784;2022-09-14T04:25:57;6.56;;;2.67;;
48809;SDS011;40070;47.322;18.784;2022-09-14T04:28:00;4.77;;;2.07;;
48809;SDS011;40070;47.322;18.784;2022-09-14T04:30:00;5.90;;;2.47;;
48809;SDS011;40070;47.322;18.784;2022-09-14T04:32:02;4.13;;;2.08;;
48809;SDS011;40070;47.322;18.784;2022-09-14T04:34:04;5.17;;;2.37;;
48809;SDS011;40070;47.322;18.784;2022-09-14T04:36:06;7.49;;;2.47;;
48809;SDS011;40070;47.322;18.784;2022-09-14T04:38:06;4.68;;;2.27;;
48809;SDS011;40070;47.322;18.784;2022-09-14T04:40:07;4.49;;;2.57;;
48809;SDS011;40070;47.322;18.784;2022-09-14T04:42:08;4.86;;;2.37;;
48809;SDS011;40070;47.322;18.784;2022-09-14T04:44:09;4.39;;;2.37;;
48809;SDS011;40070;47.322;18.784;2022-09-14T04:46:10;5.68;;;2.56;;
48809;SDS011;40070;47.322;18.784;2022-09-14T04:48:10;5.98;;;2.47;;
48809;SDS011;40070;47.322;18.784;2022-09-14T04:50:11;6.18;;;2.57;;
48809;SDS011;40070;47.322;18.784;2022-09-14T04:52:12;5.71;;;2.27;;
48809;SDS011;40070;47.322;18.784;2022-09-14T04:54:15;5.23;;;2.57;;
48809;SDS011;40070;47.322;18.784;2022-09-14T04:56:15;4.76;;;2.37;;
48809;SDS011;40070;47.322;18.784;2022-09-14T04:58:15;5.04;;;2.27;;
48809;SDS011;40070;47.322;18.784;2022-09-14T05:00:16;5.14;;;2.47;;
48809;SDS011;40070;47.322;18.784;2022-09-14T05:02:17;4.58;;;2.27;;
48809;SDS011;40070;47.322;18.784;2022-09-14T05:04:18;6.16;;;2.27;;
48809;SDS011;40070;47.322;18.784;2022-09-14T05:06:20;5.33;;;2.37;;
48809;SDS011;40070;47.322;18.784;2022-09-14T05:08:20;6.75;;;2.86;;
48809;SDS011;40070;47.322;18.784;2022-09-14T05:10:21;4.31;;;2.27;;
48809;SDS011;40070;47.322;18.784;2022-09-14T05:12:22;4.68;;;2.17;;
48809;SDS011;40070;47.322;18.784;2022-09-14T05:14:23;5.99;;;2.17;;
48809;SDS011;40070;47.322;18.784;2022-09-14T05:16:25;6.37;;;2.57;;
48809;SDS011;40070;47.322;18.784;2022-09-14T05:18:25;5.25;;;2.37;;
48809;SDS011;40070;47.322;18.784;2022-09-14T05:20:26;4.88;;;2.27;;
48809;SDS011;40070;47.322;18.784;2022-09-14T05:22:27;4.16;;;2.18;;
48809;SDS011;40070;47.322;18.784;2022-09-14T05:24:31;5.25;;;2.58;;
48809;SDS011;40070;47.322;18.784;2022-09-14T05:26:33;6.03;;;2.68;;
48809;SDS011;40070;47.322;18.784;2022-09-14T05:28:34;8.31;;;2.18;;
48809;SDS011;40070;47.322;18.784;2022-09-14T05:30:38;5.25;;;2.38;;
48809;SDS011;40070;47.322;18.784;2022-09-14T05:32:37;5.72;;;2.48;;
48809;SDS011;40070;47.322;18.784;2022-09-14T05:34:39;6.49;;;2.28;;
48809;SDS011;40070;47.322;18.784;2022-09-14T05:36:41;4.58;;;2.08;;
48809;SDS011;40070;47.322;18.784;2022-09-14T05:38:42;5.44;;;2.48;;
48809;SDS011;40070;47.322;18.784;2022-09-14T05:40:43;5.07;;;2.09;;
48809;SDS011;40070;47.322;18.784;2022-09-14T05:42:44;4.88;;;2.48;;
48809;SDS011;40070;47.322;18.784;2022-09-14T05:44:45;4.69;;;2.09;;
48809;SDS011;40070;47.322;18.784;2022-09-14T05:46:47;4.49;;;2.09;;
48809;SDS011;40070;47.322;18.784;2022-09-14T05:48:48;6.79;;;2.28;;
48809;SDS011;40070;47.322;18.784;2022-09-14T05:50:52;8.15;;;2.48;;
48809;SDS011;40070;47.322;18.784;2022-09-14T05:52:50;4.79;;;2.09;;
48809;SDS011;40070;47.322;18.784;2022-09-14T05:54:50;4.12;;;1.99;;
48809;SDS011;40070;47.322;18.784;2022-09-14T05:56:52;6.32;;;2.09;;
48809;SDS011;40070;47.322;18.784;2022-09-14T05:58:53;4.89;;;2.29;;
48809;SDS011;40070;47.322;18.784;2022-09-14T06:00:54;4.23;;;2.29;;
48809;SDS011;40070;47.322;18.784;2022-09-14T06:02:55;5.57;;;2.68;;
48809;SDS011;40070;47.322;18.784;2022-09-14T06:04:56;5.95;;;2.78;;
48809;SDS011;40070;47.322;18.784;2022-09-14T06:06:58;4.42;;;2.09;;
48809;SDS011;40070;47.322;18.784;2022-09-14T06:08:59;7.09;;;2.58;;
48809;SDS011;40070;47.322;18.784;2022-09-14T06:11:03;4.03;;;2.19;;
48809;SDS011;40070;47.322;18.784;2022-09-14T06:13:01;4.61;;;2.29;;
48809;SDS011;40070;47.322;18.784;2022-09-14T06:15:02;4.51;;;1.99;;
48809;SDS011;40070;47.322;18.784;2022-09-14T06:17:03;4.99;;;2.48;;
48809;SDS011;40070;47.322;18.784;2022-09-14T06:19:04;6.23;;;2.58;;
48809;SDS011;40070;47.322;18.784;2022-09-14T06:21:06;5.48;;;2.39;;
48809;SDS011;40070;47.322;18.784;2022-09-14T06:23:07;5.09;;;2.39;;
48809;SDS011;40070;47.322;18.784;2022-09-14T06:25:08;4.32;;;2.39;;
48809;SDS011;40070;47.322;18.784;2022-09-14T06:27:10;4.79;;;2.19;;
48809;SDS011;40070;47.322;18.784;2022-09-14T06:29:11;4.69;;;1.99;;
48809;SDS011;40070;47.322;18.784;2022-09-14T06:31:13;5.36;;;2.58;;
48809;SDS011;40070;47.322;18.784;2022-09-14T06:33:13;5.46;;;2.38;;
48809;SDS011;40070;47.322;18.784;2022-09-14T06:35:14;5.37;;;2.19;;
48809;SDS011;40070;47.322;18.784;2022-09-14T06:37:15;4.79;;;2.19;;
48809;SDS011;40070;47.322;18.784;2022-09-14T06:39:17;4.42;;;2.39;;
48809;SDS011;40070;47.322;18.784;2022-09-14T06:41:22;7.38;;;2.58;;
48809;SDS011;40070;47.322;18.784;2022-09-14T06:43:23;4.32;;;2.19;;
48809;SDS011;40070;47.322;18.784;2022-09-14T06:45:23;5.47;;;2.68;;
48809;SDS011;40070;47.322;18.784;2022-09-14T06:47:24;4.79;;;2.19;;
48809;SDS011;40070;47.322;18.784;2022-09-14T06:49:29;5.06;;;2.48;;
48809;SDS011;40070;47.322;18.784;2022-09-14T06:51:38;4.85;;;2.38;;
48809;SDS011;40070;47.322;18.784;2022-09-14T06:53:33;5.07;;;2.48;;
48809;SDS011;40070;47.322;18.784;2022-09-14T06:55:34;7.60;;;2.48;;
48809;SDS011;40070;47.322;18.784;2022-09-14T06:57:36;7.33;;;2.78;;
48809;SDS011;40070;47.322;18.784;2022-09-14T06:59:37;5.52;;;2.68;;
48809;SDS011;40070;47.322;18.784;2022-09-14T07:01:41;5.99;;;2.88;;
48809;SDS011;40070;47.322;18.784;2022-09-14T07:03:42;5.88;;;2.48;;
48809;SDS011;40070;47.322;18.784;2022-09-14T07:05:42;5.21;;;2.38;;
48809;SDS011;40070;47.322;18.784;2022-09-14T07:07:45;5.78;;;3.17;;
48809;SDS011;40070;47.322;18.784;2022-09-14T07:09:46;6.35;;;2.87;;
48809;SDS011;40070;47.322;18.784;2022-09-14T07:11:48;5.21;;;2.68;;
48809;SDS011;40070;47.322;18.784;2022-09-14T07:13:49;5.58;;;2.58;;
48809;SDS011;40070;47.322;18.784;2022-09-14T07:15:51;5.49;;;2.57;;
48809;SDS011;40070;47.322;18.784;2022-09-14T07:17:51;5.45;;;2.48;;
48809;SDS011;40070;47.322;18.784;2022-09-14T07:19:52;6.39;;;2.68;;
48809;SDS011;40070;47.322;18.784;2022-09-14T07:21:54;5.14;;;2.18;;
48809;SDS011;40070;47.322;18.784;2022-09-14T07:23:55;5.32;;;2.58;;
48809;SDS011;40070;47.322;18.784;2022-09-14T07:27:57;5.72;;;2.18;;
48809;SDS011;40070;47.322;18.784;2022-09-14T07:29:57;5.85;;;2.58;;
48809;SDS011;40070;47.322;18.784;2022-09-14T07:32:00;6.61;;;2.58;;
48809;SDS011;40070;47.322;18.784;2022-09-14T07:34:01;6.32;;;2.68;;
48809;SDS011;40070;47.322;18.784;2022-09-14T07:36:06;5.45;;;2.58;;
48809;SDS011;40070;47.322;18.784;2022-09-14T07:38:03;6.40;;;2.98;;
48809;SDS011;40070;47.322;18.784;2022-09-14T07:40:04;6.58;;;2.68;;
48809;SDS011;40070;47.322;18.784;2022-09-14T07:42:06;5.27;;;2.48;;
48809;SDS011;40070;47.322;18.784;2022-09-14T07:44:07;6.14;;;2.78;;
48809;SDS011;40070;47.322;18.784;2022-09-14T07:46:08;5.57;;;2.78;;
48809;SDS011;40070;47.322;18.784;2022-09-14T07:48:09;4.97;;;2.58;;
48809;SDS011;40070;47.322;18.784;2022-09-14T07:50:10;5.65;;;2.88;;
48809;SDS011;40070;47.322;18.784;2022-09-14T07:52:11;5.55;;;2.68;;
48809;SDS011;40070;47.322;18.784;2022-09-14T07:54:15;5.75;;;2.29;;
48809;SDS011;40070;47.322;18.784;2022-09-14T07:56:14;5.09;;;2.39;;
48809;SDS011;40070;47.322;18.784;2022-09-14T07:58:15;6.14;;;2.68;;
48809;SDS011;40070;47.322;18.784;2022-09-14T08:00:16;6.30;;;2.98;;
48809;SDS011;40070;47.322;18.784;2022-09-14T08:02:17;7.45;;;3.08;;
48809;SDS011;40070;47.322;18.784;2022-09-14T08:04:18;6.88;;;2.88;;
48809;SDS011;40070;47.322;18.784;2022-09-14T08:06:19;6.59;;;2.88;;
48809;SDS011;40070;47.322;18.784;2022-09-14T08:08:29;5.25;;;2.48;;
48809;SDS011;40070;47.322;18.784;2022-09-14T08:10:29;5.83;;;2.68;;
48809;SDS011;40070;47.322;18.784;2022-09-14T08:12:30;6.02;;;3.08;;
48809;SDS011;40070;47.322;18.784;2022-09-14T08:14:35;5.82;;;2.98;;
48809;SDS011;40070;47.322;18.784;2022-09-14T08:16:35;8.76;;;2.68;;
48809;SDS011;40070;47.322;18.784;2022-09-14T08:18:36;4.97;;;2.28;;
48809;SDS011;40070;47.322;18.784;2022-09-14T08:20:37;6.02;;;2.48;;
48809;SDS011;40070;47.322;18.784;2022-09-14T08:22:38;6.03;;;2.78;;
48809;SDS011;40070;47.322;18.784;2022-09-14T08:24:42;5.37;;;2.48;;
48809;SDS011;40070;47.322;18.784;2022-09-14T08:26:45;5.76;;;2.19;;
48809;SDS011;40070;47.322;18.784;2022-09-14T08:28:46;6.24;;;2.48;;
48809;SDS011;40070;47.322;18.784;2022-09-14T08:30:46;5.27;;;2.48;;
48809;SDS011;40070;47.322;18.784;2022-09-14T08:32:47;4.71;;;2.19;;
48809;SDS011;40070;47.322;18.784;2022-09-14T08:34:49;4.60;;;2.19;;
48809;SDS011;40070;47.322;18.784;2022-09-14T08:36:51;5.08;;;2.48;;
48809;SDS011;40070;47.322;18.784;2022-09-14T08:38:52;5.57;;;2.39;;
48809;SDS011;40070;47.322;18.784;2022-09-14T08:40:53;5.20;;;2.29;;
48809;SDS011;40070;47.322;18.784;2022-09-14T08:42:54;5.09;;;2.39;;
48809;SDS011;40070;47.322;18.784;2022-09-14T08:45:11;4.43;;;2.09;;
48809;SDS011;40070;47.322;18.784;2022-09-14T08:51:29;6.48;;;2.29;;
48809;SDS011;40070;47.322;18.784;2022-09-14T08:53:31;6.57;;;2.39;;
48809;SDS011;40070;47.322;18.784;2022-09-14T08:55:44;4.92;;;2.09;;
48809;SDS011;40070;47.322;18.784;2022-09-14T08:57:53;5.70;;;2.39;;
48809;SDS011;40070;47.322;18.784;2022-09-14T09:00:09;4.36;;;2.19;;
48809;SDS011;40070;47.322;18.784;2022-09-14T09:02:32;4.94;;;2.39;;
48809;SDS011;40070;47.322;18.784;2022-09-14T09:04:44;5.32;;;2.49;;
48809;SDS011;40070;47.322;18.784;2022-09-14T09:09:09;6.77;;;1.99;;
48809;SDS011;40070;47.322;18.784;2022-09-14T09:11:12;5.21;;;2.19;;
48809;SDS011;40070;47.322;18.784;2022-09-14T09:13:15;6.08;;;2.59;;
48809;SDS011;40070;47.322;18.784;2022-09-14T09:15:21;4.44;;;2.19;;
48809;SDS011;40070;47.322;18.784;2022-09-14T09:17:30;7.72;;;2.59;;
48809;SDS011;40070;47.322;18.784;2022-09-14T09:19:31;6.47;;;2.99;;
48809;SDS011;40070;47.322;18.784;2022-09-14T09:21:51;4.15;;;1.69;;
48809;SDS011;40070;47.322;18.784;2022-09-14T09:23:54;4.25;;;2.09;;
48809;SDS011;40070;47.322;18.784;2022-09-14T09:26:05;3.39;;;1.69;;
48809;SDS011;40070;47.322;18.784;2022-09-14T09:28:01;5.03;;;1.89;;
48809;SDS011;40070;47.322;18.784;2022-09-14T09:29:59;3.68;;;1.89;;
48809;SDS011;40070;47.322;18.784;2022-09-14T09:32:03;3.98;;;1.79;;
48809;SDS011;40070;47.322;18.784;2022-09-14T09:34:04;6.80;;;2.49;;
48809;SDS011;40070;47.322;18.784;2022-09-14T09:36:05;6.04;;;1.99;;
48809;SDS011;40070;47.322;18.784;2022-09-14T09:38:13;6.42;;;2.49;;
48809;SDS011;40070;47.322;18.784;2022-09-14T09:40:18;4.09;;;1.79;;
48809;SDS011;40070;47.322;18.784;2022-09-14T09:42:22;3.69;;;1.79;;
48809;SDS011;40070;47.322;18.784;2022-09-14T09:45:07;6.11;;;2.19;;
48809;SDS011;40070;47.322;18.784;2022-09-14T09:46:37;5.07;;;2.29;;
48809;SDS011;40070;47.322;18.784;2022-09-14T09:48:41;5.95;;;1.80;;
48809;SDS011;40070;47.322;18.784;2022-09-14T09:50:50;3.61;;;1.60;;
48809;SDS011;40070;47.322;18.784;2022-09-14T09:52:53;3.90;;;1.59;;
48809;SDS011;40070;47.322;18.784;2022-09-14T09:55:00;4.00;;;2.09;;
48809;SDS011;40070;47.322;18.784;2022-09-14T09:57:35;3.61;;;1.60;;
48809;SDS011;40070;47.322;18.784;2022-09-14T09:59:22;3.71;;;2.09;;
48809;SDS011;40070;47.322;18.784;2022-09-14T10:01:53;4.20;;;1.90;;
48809;SDS011;40070;47.322;18.784;2022-09-14T10:03:25;5.37;;;2.09;;
48809;SDS011;40070;47.322;18.784;2022-09-14T10:05:28;4.20;;;1.89;;
48809;SDS011;40070;47.322;18.784;2022-09-14T10:07:29;4.10;;;1.89;;
48809;SDS011;40070;47.322;18.784;2022-09-14T10:09:29;4.00;;;1.70;;
48809;SDS011;40070;47.322;18.784;2022-09-14T10:11:34;4.19;;;1.89;;
48809;SDS011;40070;47.322;18.784;2022-09-14T10:13:34;4.48;;;2.19;;
48809;SDS011;40070;47.322;18.784;2022-09-14T10:15:46;5.27;;;1.99;;
48809;SDS011;40070;47.322;18.784;2022-09-14T10:18:07;4.11;;;1.90;;
48809;SDS011;40070;47.322;18.784;2022-09-14T10:19:54;4.59;;;1.90;;
48809;SDS011;40070;47.322;18.784;2022-09-14T10:22:03;5.17;;;2.29;;
48809;SDS011;40070;47.322;18.784;2022-09-14T10:24:01;5.18;;;1.80;;
48809;SDS011;40070;47.322;18.784;2022-09-14T10:30:15;4.20;;;1.50;;
48809;SDS011;40070;47.322;18.784;2022-09-14T10:32:20;6.54;;;1.99;;
48809;SDS011;40070;47.322;18.784;2022-09-14T10:34:19;3.51;;;1.70;;
48809;SDS011;40070;47.322;18.784;2022-09-14T10:36:35;3.31;;;1.60;;
48809;SDS011;40070;47.322;18.784;2022-09-14T10:41:21;5.35;;;1.99;;
48809;SDS011;40070;47.322;18.784;2022-09-14T10:43:14;5.26;;;2.09;;
48809;SDS011;40070;47.322;18.784;2022-09-14T10:45:51;5.95;;;1.99;;
48809;SDS011;40070;47.322;18.784;2022-09-14T10:48:21;4.68;;;1.50;;
48809;SDS011;40070;47.322;18.784;2022-09-14T10:50:26;4.00;;;1.60;;
48809;SDS011;40070;47.322;18.784;2022-09-14T10:52:25;4.58;;;1.89;;
48809;SDS011;40070;47.322;18.784;2022-09-14T10:56:49;3.62;;;1.70;;
48809;SDS011;40070;47.322;18.784;2022-09-14T10:59:03;3.91;;;1.90;;
48809;SDS011;40070;47.322;18.784;2022-09-14T11:00:48;2.73;;;1.40;;
48809;SDS011;40070;47.322;18.784;2022-09-14T11:05:36;4.01;;;1.10;;
48809;SDS011;40070;47.322;18.784;2022-09-14T11:08:03;3.04;;;1.00;;
48809;SDS011;40070;47.322;18.784;2022-09-14T11:10:18;2.64;;;1.10;;
48809;SDS011;40070;47.322;18.784;2022-09-14T11:13:26;3.03;;;0.90;;
48809;SDS011;40070;47.322;18.784;2022-09-14T11:15:02;2.25;;;0.90;;
48809;SDS011;40070;47.322;18.784;2022-09-14T11:24:45;2.54;;;0.90;;
48809;SDS011;40070;47.322;18.784;2022-09-14T11:26:31;1.96;;;0.90;;
48809;SDS011;40070;47.322;18.784;2022-09-14T11:28:32;4.31;;;1.50;;
48809;SDS011;40070;47.322;18.784;2022-09-14T11:30:37;2.64;;;1.00;;
48809;SDS011;40070;47.322;18.784;2022-09-14T11:37:05;2.45;;;1.00;;
48809;SDS011;40070;47.322;18.784;2022-09-14T11:39:14;2.55;;;1.20;;
48809;SDS011;40070;47.322;18.784;2022-09-14T11:41:30;2.25;;;1.00;;
48809;SDS011;40070;47.322;18.784;2022-09-14T11:43:28;2.16;;;1.00;;
48809;SDS011;40070;47.322;18.784;2022-09-14T11:45:41;2.94;;;0.80;;
48809;SDS011;40070;47.322;18.784;2022-09-14T11:47:51;2.55;;;0.90;;
48809;SDS011;40070;47.322;18.784;2022-09-14T11:52:16;2.07;;;0.90;;
48809;SDS011;40070;47.322;18.784;2022-09-14T11:54:16;2.75;;;0.90;;
48809;SDS011;40070;47.322;18.784;2022-09-14T11:56:24;2.26;;;1.00;;
48809;SDS011;40070;47.322;18.784;2022-09-14T11:58:17;2.75;;;1.20;;
48809;SDS011;40070;47.322;18.784;2022-09-14T12:04:23;2.16;;;0.90;;
48809;SDS011;40070;47.322;18.784;2022-09-14T12:08:35;4.62;;;1.90;;
48809;SDS011;40070;47.322;18.784;2022-09-14T12:10:58;2.26;;;1.10;;
48809;SDS011;40070;47.322;18.784;2022-09-14T12:15:11;2.86;;;0.90;;
48809;SDS011;40070;47.322;18.784;2022-09-14T12:17:20;2.95;;;0.80;;
48809;SDS011;40070;47.322;18.784;2022-09-14T12:19:26;3.64;;;1.00;;
48809;SDS011;40070;47.322;18.784;2022-09-14T12:21:37;1.78;;;0.80;;
48809;SDS011;40070;47.322;18.784;2022-09-14T12:23:48;1.97;;;0.80;;
48809;SDS011;40070;47.322;18.784;2022-09-14T12:26:37;3.94;;;0.80;;
48809;SDS011;40070;47.322;18.784;2022-09-14T12:27:53;3.25;;;1.20;;
48809;SDS011;40070;47.322;18.784;2022-09-14T12:29:57;3.45;;;1.20;;
48809;SDS011;40070;47.322;18.784;2022-09-14T12:32:25;2.76;;;0.80;;
48809;SDS011;40070;47.322;18.784;2022-09-14T12:34:17;2.27;;;0.80;;
48809;SDS011;40070;47.322;18.784;2022-09-14T12:40:43;2.76;;;1.00;;
48809;SDS011;40070;47.322;18.784;2022-09-14T12:46:00;2.07;;;0.80;;
48809;SDS011;40070;47.322;18.784;2022-09-14T12:49:30;2.27;;;0.90;;
48809;SDS011;40070;47.322;18.784;2022-09-14T12:51:41;2.07;;;0.90;;
48809;SDS011;40070;47.322;18.784;2022-09-14T12:54:02;2.27;;;1.00;;
48809;SDS011;40070;47.322;18.784;2022-09-14T12:56:03;2.37;;;1.00;;
48809;SDS011;40070;47.322;18.784;2022-09-14T13:00:23;3.26;;;1.00;;
48809;SDS011;40070;47.322;18.784;2022-09-14T13:02:57;2.47;;;1.00;;
48809;SDS011;40070;47.322;18.784;2022-09-14T13:04:43;1.87;;;0.90;;
48809;SDS011;40070;47.322;18.784;2022-09-14T13:06:45;2.07;;;0.80;;
48809;SDS011;40070;47.322;18.784;2022-09-14T13:08:55;2.86;;;1.20;;
48809;SDS011;40070;47.322;18.784;2022-09-14T13:11:02;2.07;;;1.00;;
48809;SDS011;40070;47.322;18.784;2022-09-14T13:13:18;1.68;;;0.80;;
48809;SDS011;40070;47.322;18.784;2022-09-14T13:15:28;3.74;;;1.10;;
48809;SDS011;40070;47.322;18.784;2022-09-14T13:17:26;2.07;;;0.80;;
48809;SDS011;40070;47.322;18.784;2022-09-14T13:19:34;2.17;;;0.90;;
48809;SDS011;40070;47.322;18.784;2022-09-14T13:21:52;1.97;;;0.90;;
48809;SDS011;40070;47.322;18.784;2022-09-14T13:23:54;2.47;;;0.90;;
48809;SDS011;40070;47.322;18.784;2022-09-14T13:25:56;1.97;;;0.80;;
48809;SDS011;40070;47.322;18.784;2022-09-14T13:28:04;2.17;;;0.90;;
48809;SDS011;40070;47.322;18.784;2022-09-14T13:30:05;3.26;;;0.90;;
48809;SDS011;40070;47.322;18.784;2022-09-14T13:32:10;2.96;;;1.20;;
48809;SDS011;40070;47.322;18.784;2022-09-14T13:34:12;2.56;;;1.10;;
48809;SDS011;40070;47.322;18.784;2022-09-14T13:36:15;2.76;;;1.20;;
48809;SDS011;40070;47.322;18.784;2022-09-14T13:38:18;2.56;;;0.90;;